createdAt,value
2023-04-12T00:00:21.028Z,14.23
2023-04-12T00:02:54.388Z,12.10
2023-04-12T00:05:23.351Z,11.57
2023-04-12T00:07:53.172Z,8.55
2023-04-12T00:10:20.114Z,12.35
2023-04-12T00:12:47.456Z,12.70
2023-04-12T00:15:17.713Z,7.93
2023-04-12T00:17:45.234Z,6.80
2023-04-12T00:20:13.118Z,7.85
2023-04-12T00:22:41.595Z,9.60
2023-04-12T00:25:10.390Z,6.95
2023-04-12T00:27:37.975Z,5.22
2023-04-12T00:30:06.028Z,7.13
2023-04-12T00:32:34.027Z,5.32
2023-04-12T00:35:01.113Z,10.30
2023-04-12T00:37:28.298Z,9.60
2023-04-12T00:39:55.111Z,4.90
2023-04-12T00:42:22.845Z,5.00
2023-04-12T00:44:49.820Z,6.20
2023-04-12T00:47:16.664Z,6.13
2023-04-12T00:49:48.864Z,8.93
2023-04-12T00:52:18.445Z,8.80
2023-04-12T00:54:45.415Z,4.65
2023-04-12T00:57:13.977Z,4.95
2023-04-12T00:59:41.143Z,6.10
2023-04-12T01:02:08.209Z,5.28
2023-04-12T01:04:38.047Z,3.78
2023-04-12T01:07:25.308Z,3.28
2023-04-12T01:10:10.085Z,3.72
2023-04-12T01:12:50.602Z,4.20
2023-04-12T01:15:17.722Z,10.45
2023-04-12T01:18:24.476Z,5.45
2023-04-12T01:21:01.872Z,9.40
2023-04-12T01:23:59.272Z,8.57
2023-04-12T01:26:39.633Z,6.32
2023-04-12T01:29:15.542Z,4.93
2023-04-12T01:31:54.862Z,5.40
2023-04-12T01:34:25.060Z,6.43
2023-04-12T01:36:52.351Z,10.00
2023-04-12T01:39:20.029Z,9.98
2023-04-12T01:41:49.292Z,6.85
2023-04-12T01:44:17.237Z,7.90
2023-04-12T01:46:47.684Z,5.18
2023-04-12T01:49:16.076Z,8.30
2023-04-12T01:52:01.448Z,6.30
2023-04-12T01:54:31.087Z,6.85
2023-04-12T01:57:01.358Z,7.25
2023-04-12T01:59:37.467Z,4.45
2023-04-12T02:02:04.497Z,1.98
2023-04-12T02:04:33.962Z,3.45
2023-04-12T02:07:04.249Z,7.10
2023-04-12T02:09:36.277Z,5.43
2023-04-12T02:12:03.144Z,3.80
2023-04-12T02:14:31.645Z,6.72
2023-04-12T02:17:00.216Z,4.50
2023-04-12T02:19:27.526Z,11.68
2023-04-12T02:21:54.492Z,5.90
2023-04-12T02:24:21.540Z,9.30
2023-04-12T02:26:50.005Z,4.95
2023-04-12T02:29:17.611Z,4.95
2023-04-12T02:31:44.574Z,7.93
2023-04-12T02:34:14.038Z,3.80
2023-04-12T02:36:40.937Z,7.00
2023-04-12T02:39:07.919Z,5.80
2023-04-12T02:41:34.978Z,12.32
2023-04-12T02:44:02.379Z,10.70
2023-04-12T02:46:29.506Z,7.10
2023-04-12T02:48:56.925Z,13.13
2023-04-12T02:51:23.857Z,8.63
2023-04-12T02:53:52.439Z,8.68
2023-04-12T02:56:19.461Z,14.55
2023-04-12T02:58:46.431Z,6.10
2023-04-12T03:01:14.709Z,10.68
2023-04-12T03:03:42.034Z,3.50
2023-04-12T03:06:10.890Z,7.25
2023-04-12T03:08:38.811Z,8.55
2023-04-12T03:11:06.025Z,8.43
2023-04-12T03:13:32.899Z,7.13
2023-04-12T03:16:01.841Z,12.93
2023-04-12T03:18:28.850Z,8.35
2023-04-12T03:20:56.264Z,11.18
2023-04-12T03:23:23.411Z,11.70
2023-04-12T03:25:50.886Z,5.03
2023-04-12T03:28:17.976Z,10.43
2023-04-12T03:30:44.890Z,8.57
2023-04-12T03:33:11.873Z,10.63
2023-04-12T03:35:40.337Z,11.52
2023-04-12T03:38:07.229Z,6.03
2023-04-12T03:40:34.043Z,7.18
2023-04-12T03:43:02.077Z,10.35
2023-04-12T03:45:29.196Z,9.07
2023-04-12T03:47:56.085Z,14.13
2023-04-12T03:50:23.083Z,10.35
2023-04-12T03:52:50.555Z,8.35
2023-04-12T03:55:18.566Z,10.57
2023-04-12T03:57:47.056Z,16.10
2023-04-12T04:00:14.658Z,7.40
2023-04-12T04:02:41.665Z,5.53
2023-04-12T04:05:09.865Z,6.80
2023-04-12T04:07:36.827Z,9.00
2023-04-12T04:10:05.671Z,10.52
2023-04-12T04:12:32.562Z,13.00
2023-04-12T04:15:00.615Z,11.02
2023-04-12T04:17:27.408Z,5.13
2023-04-12T04:19:54.868Z,11.63
2023-04-12T04:22:22.827Z,10.82
2023-04-12T04:24:51.819Z,9.05
2023-04-12T04:27:20.578Z,14.20
2023-04-12T04:29:47.533Z,8.57
2023-04-12T04:32:15.826Z,7.38
2023-04-12T04:34:43.593Z,10.02
2023-04-12T04:37:10.636Z,7.45
2023-04-12T04:39:37.486Z,6.95
2023-04-12T04:42:09.068Z,7.93
2023-04-12T04:47:03.590Z,2.63
2023-04-12T04:49:30.664Z,8.60
2023-04-12T04:51:57.714Z,13.82
2023-04-12T04:54:24.596Z,12.50
2023-04-12T04:56:51.430Z,10.77
2023-04-12T04:59:18.530Z,6.72
2023-04-12T05:01:45.846Z,8.23
2023-04-12T05:04:12.733Z,7.53
2023-04-12T05:06:39.786Z,12.32
2023-04-12T05:09:06.548Z,6.72
2023-04-12T05:11:33.365Z,12.98
2023-04-12T05:14:00.588Z,9.95
2023-04-12T05:16:27.403Z,4.68
2023-04-12T05:18:54.344Z,12.55
2023-04-12T05:21:23.253Z,6.53
2023-04-12T05:23:51.433Z,9.40
2023-04-12T05:26:18.502Z,7.85
2023-04-12T05:28:45.975Z,10.07
2023-04-12T05:31:13.993Z,6.85
2023-04-12T05:33:41.011Z,8.48
2023-04-12T05:36:08.094Z,5.35
2023-04-12T05:38:34.907Z,9.95
2023-04-12T05:41:04.689Z,11.63
2023-04-12T05:43:32.998Z,7.35
2023-04-12T05:45:59.951Z,17.60
2023-04-12T05:51:12.448Z,7.82
2023-04-12T05:53:39.273Z,7.20
2023-04-12T05:56:06.620Z,9.68
2023-04-12T07:06:25.954Z,17.58
2023-04-12T07:08:53.382Z,16.27
2023-04-12T07:11:23.930Z,21.38
2023-04-12T07:13:51.621Z,13.67
2023-04-12T07:16:18.770Z,17.15
2023-04-12T07:18:45.706Z,15.77
2023-04-12T07:21:17.522Z,16.35
2023-04-12T07:23:44.809Z,16.08
2023-04-12T07:26:11.641Z,17.85
2023-04-12T07:28:39.135Z,19.95
2023-04-12T07:31:07.569Z,18.10
2023-04-12T07:33:36.292Z,17.10
2023-04-12T07:36:04.637Z,19.48
2023-04-12T07:38:31.606Z,23.30
2023-04-12T07:40:58.744Z,18.45
2023-04-12T07:43:25.920Z,24.75
2023-04-12T07:45:55.892Z,18.52
2023-04-12T07:48:23.155Z,23.05
2023-04-12T07:50:50.691Z,28.02
2023-04-12T07:53:24.393Z,26.20
2023-04-12T07:55:51.609Z,26.63
2023-04-12T07:58:19.835Z,24.15
2023-04-12T08:00:47.108Z,24.42
2023-04-12T08:03:16.116Z,26.23
2023-04-12T08:05:44.350Z,28.60
2023-04-12T08:08:11.968Z,26.42
2023-04-12T08:10:39.536Z,26.23
2023-04-12T08:13:06.862Z,25.60
2023-04-12T08:15:33.890Z,27.85
2023-04-12T08:18:01.465Z,24.27
2023-04-12T08:20:28.308Z,27.63
2023-04-12T08:22:55.382Z,30.90
2023-04-12T08:25:22.510Z,27.85
2023-04-12T08:27:50.783Z,29.70
2023-04-12T08:30:18.513Z,36.40
2023-04-12T08:32:45.790Z,29.33
2023-04-12T08:35:12.713Z,28.42
2023-04-12T08:37:39.877Z,21.15
2023-04-12T08:40:08.185Z,26.17
2023-04-12T08:42:37.413Z,21.85
2023-04-12T08:45:12.024Z,23.88
2023-04-12T08:47:44.043Z,20.70
2023-04-12T08:50:17.301Z,19.50
2023-04-12T08:52:44.390Z,25.42
2023-04-12T08:55:12.925Z,20.02
2023-04-12T08:57:41.437Z,25.05
2023-04-12T09:00:09.947Z,23.15
2023-04-12T09:02:38.463Z,24.23
2023-04-12T09:05:07.067Z,21.92
2023-04-12T09:07:34.332Z,24.15
2023-04-12T09:10:01.506Z,16.40
2023-04-12T09:12:28.498Z,21.85
2023-04-12T09:15:13.441Z,20.90
2023-04-12T09:17:42.047Z,21.90
2023-04-12T09:20:18.091Z,23.92
2023-04-12T09:22:46.694Z,16.15
2023-04-12T09:25:17.379Z,22.95
2023-04-12T09:27:51.111Z,14.20
2023-04-12T09:30:20.250Z,17.55
2023-04-12T09:32:50.786Z,17.25
2023-04-12T09:35:17.963Z,20.75
2023-04-12T09:37:45.002Z,19.08
2023-04-12T09:40:12.208Z,25.50
2023-04-12T09:42:55.335Z,25.77
2023-04-12T09:45:28.455Z,22.05
2023-04-12T09:47:56.209Z,19.33
2023-04-12T09:50:28.712Z,18.58
2023-04-12T09:52:57.190Z,19.88
2023-04-12T09:55:25.880Z,16.85
2023-04-12T09:57:54.116Z,15.45
2023-04-12T10:00:23.558Z,17.35
2023-04-12T10:02:53.173Z,20.77
2023-04-12T10:05:25.166Z,14.63
2023-04-12T10:07:53.135Z,17.27
2023-04-12T10:10:20.925Z,15.82
2023-04-12T10:12:49.748Z,19.92
2023-04-12T10:15:18.302Z,16.38
2023-04-12T10:17:47.986Z,22.25
2023-04-12T10:20:17.201Z,20.95
2023-04-12T10:22:51.896Z,17.17
2023-04-12T10:25:24.108Z,19.13
2023-04-12T10:27:51.679Z,20.77
2023-04-12T10:30:23.127Z,16.17
2023-04-12T10:33:11.700Z,11.75
2023-04-12T10:36:03.977Z,19.70
2023-04-12T10:38:37.401Z,21.60
2023-04-12T10:41:13.539Z,17.05
2023-04-12T10:43:51.311Z,18.60
2023-04-12T10:46:39.896Z,23.83
2023-04-12T10:49:14.685Z,20.02
2023-04-12T10:52:04.139Z,22.63
2023-04-12T10:54:35.295Z,18.10
2023-04-12T10:59:54.545Z,18.85
2023-04-12T11:02:21.872Z,19.90
2023-04-12T11:05:21.247Z,17.58
2023-04-12T11:07:53.356Z,23.40
2023-04-12T11:10:21.787Z,18.52
2023-04-12T11:12:50.485Z,16.88
2023-04-12T11:15:18.138Z,23.30
2023-04-12T11:17:54.464Z,30.38
2023-04-12T11:20:21.580Z,19.65
2023-04-12T11:22:50.359Z,17.88
2023-04-12T11:25:18.292Z,22.80
2023-04-12T11:27:53.000Z,20.30
2023-04-12T11:30:20.672Z,24.45
2023-04-12T11:32:47.832Z,24.95
2023-04-12T11:35:20.419Z,27.17
2023-04-12T11:37:47.780Z,20.70
2023-04-12T11:40:14.813Z,16.35
2023-04-12T11:42:41.944Z,11.77
2023-04-12T11:45:16.607Z,18.85
2023-04-12T11:47:46.240Z,16.55
2023-04-12T11:55:34.156Z,14.68
2023-04-12T11:58:00.978Z,18.75
2023-04-12T12:00:29.541Z,15.05
2023-04-12T12:03:07.819Z,13.73
2023-04-12T12:05:41.070Z,14.00
2023-04-12T12:08:11.531Z,11.63
2023-04-12T12:10:52.386Z,13.02
2023-04-12T12:13:27.025Z,9.27
2023-04-12T12:16:00.261Z,11.40
2023-04-12T12:18:28.862Z,13.70
2023-04-12T12:20:56.288Z,16.08
2023-04-12T12:23:32.711Z,11.23
2023-04-12T12:26:17.502Z,4.28
2023-04-12T12:28:53.254Z,9.00
2023-04-12T12:31:22.249Z,14.50
2023-04-12T12:33:52.721Z,7.28
2023-04-12T12:36:23.238Z,10.35
2023-04-12T12:38:53.695Z,6.13
2023-04-12T12:41:22.157Z,8.07
2023-04-12T12:43:51.032Z,11.57
2023-04-12T12:46:19.406Z,5.60
2023-04-12T12:48:47.935Z,9.43
2023-04-12T12:51:20.386Z,9.63
2023-04-12T12:53:48.408Z,6.93
2023-04-12T12:56:16.030Z,10.88
2023-04-12T12:58:46.029Z,7.57
2023-04-12T13:01:12.894Z,7.80
2023-04-12T13:03:39.805Z,11.02
2023-04-12T13:06:07.654Z,6.05
2023-04-12T13:08:37.192Z,7.50
2023-04-12T13:11:06.417Z,9.10
2023-04-12T13:13:33.301Z,2.90
2023-04-12T13:16:00.229Z,7.85
2023-04-12T13:18:27.102Z,8.82
2023-04-12T13:20:55.308Z,4.32
2023-04-12T13:23:22.196Z,6.97
2023-04-12T13:25:49.001Z,6.28
2023-04-12T13:28:17.152Z,3.88
2023-04-12T13:30:43.993Z,2.90
2023-04-12T13:33:12.441Z,3.33
2023-04-12T13:35:41.967Z,3.33
2023-04-12T13:38:08.791Z,4.80
2023-04-12T13:40:35.811Z,6.13
2023-04-12T13:43:02.731Z,6.28
2023-04-12T13:45:30.584Z,11.63
2023-04-12T13:47:58.654Z,5.80
2023-04-12T13:50:27.629Z,5.88
2023-04-12T13:52:55.406Z,4.18
2023-04-12T13:55:22.488Z,7.95
2023-04-12T13:57:49.474Z,2.72
2023-04-12T14:00:19.048Z,5.65
2023-04-12T14:02:45.989Z,5.95
2023-04-12T14:05:12.799Z,5.85
2023-04-12T14:07:39.807Z,4.07
2023-04-12T14:10:07.420Z,5.72
2023-04-12T14:12:34.328Z,4.70
2023-04-12T14:15:01.616Z,6.78
2023-04-12T14:17:32.611Z,4.15
2023-04-12T14:22:26.942Z,5.97
2023-04-12T14:24:55.890Z,3.47
2023-04-12T14:27:23.032Z,5.20
2023-04-12T14:29:51.084Z,6.93
2023-04-12T14:32:18.234Z,4.60
2023-04-12T14:34:46.684Z,3.53
2023-04-12T14:37:13.750Z,4.43
2023-04-12T14:39:40.720Z,4.07
2023-04-12T14:42:07.808Z,5.10
2023-04-12T14:44:34.848Z,4.32
2023-04-12T14:47:01.777Z,2.88
2023-04-12T14:49:32.437Z,3.97
2023-04-12T14:52:00.127Z,5.72
2023-04-12T14:54:27.041Z,7.55
2023-04-12T14:56:55.988Z,8.02
2023-04-12T14:59:23.642Z,5.28
2023-04-12T15:01:53.333Z,5.88
2023-04-12T15:04:24.596Z,4.93
2023-04-12T15:06:51.988Z,7.00
2023-04-12T15:09:18.895Z,10.35
2023-04-12T15:11:59.040Z,3.63
2023-04-12T15:14:26.552Z,2.97
2023-04-12T15:16:55.605Z,3.35
2023-04-12T15:19:24.066Z,6.15
2023-04-12T15:21:57.389Z,6.60
2023-04-12T15:24:26.303Z,2.35
2023-04-12T15:26:53.374Z,1.88
2023-04-12T15:29:22.828Z,3.53
2023-04-12T15:31:52.723Z,7.53
2023-04-12T15:34:20.257Z,3.42
2023-04-12T15:36:47.176Z,3.95
2023-04-12T15:39:15.287Z,2.65
2023-04-12T15:41:43.760Z,5.72
2023-04-12T15:44:14.334Z,4.75
2023-04-12T15:46:41.893Z,7.80
2023-04-12T15:49:09.544Z,3.15
2023-04-12T15:51:36.810Z,5.32
2023-04-12T15:54:06.172Z,3.75
2023-04-12T15:56:34.545Z,9.48
2023-04-12T15:59:01.809Z,5.07
2023-04-12T16:01:29.121Z,4.95
2023-04-12T16:03:56.374Z,2.65
2023-04-12T16:06:27.615Z,4.47
2023-04-12T16:08:55.632Z,4.38
2023-04-12T16:11:23.788Z,15.32
2023-04-12T16:13:51.498Z,10.40
2023-04-12T16:16:20.938Z,12.73
2023-04-12T16:18:51.549Z,4.03
2023-04-12T16:21:20.162Z,6.22
2023-04-12T16:23:48.623Z,4.22
2023-04-12T16:29:06.480Z,26.50
2023-04-12T16:31:33.533Z,9.23
2023-04-12T16:34:01.551Z,9.02
2023-04-12T16:36:31.671Z,7.55
2023-04-12T16:39:04.687Z,5.50
2023-04-12T16:41:31.646Z,6.10
2023-04-12T16:53:44.314Z,3.13
2023-04-12T17:07:05.078Z,4.85
2023-04-12T17:09:32.133Z,8.63
2023-04-12T17:12:07.521Z,8.73
2023-04-12T17:14:34.447Z,5.45
2023-04-12T17:22:33.395Z,5.47
2023-04-12T17:25:00.322Z,7.35
2023-04-12T17:27:29.806Z,5.60
2023-04-12T17:29:56.859Z,4.95
2023-04-12T17:32:27.933Z,5.10
2023-04-12T17:35:06.904Z,5.13
2023-04-12T17:37:42.177Z,3.85
2023-04-12T17:45:34.205Z,4.45
2023-04-12T17:50:47.220Z,4.10
2023-04-12T17:53:20.260Z,6.47
2023-04-12T17:55:48.916Z,3.80
2023-04-12T17:58:27.452Z,3.28
2023-04-12T18:01:09.646Z,2.53
2023-04-12T18:03:39.124Z,7.85
2023-04-12T18:06:08.063Z,5.85
2023-04-12T18:08:37.850Z,3.53
2023-04-12T18:11:15.101Z,5.10
2023-04-12T18:16:31.289Z,3.15
2023-04-12T18:19:09.178Z,8.27
2023-04-12T18:21:49.817Z,3.95
2023-04-12T18:24:26.146Z,7.32
2023-04-12T18:48:48.302Z,5.05
2023-04-12T19:02:22.129Z,7.50
2023-04-12T19:07:26.293Z,7.38
2023-04-12T19:09:55.803Z,8.70
2023-04-12T19:15:03.538Z,8.82
2023-04-12T19:17:33.549Z,9.00
2023-04-12T19:20:01.431Z,9.25
2023-04-12T19:22:28.989Z,7.38
2023-04-12T19:24:56.312Z,9.98
2023-04-12T19:27:23.816Z,9.60
2023-04-12T19:29:53.895Z,9.35
2023-04-12T19:32:20.961Z,11.02
2023-04-12T19:34:49.565Z,7.82
2023-04-12T19:37:25.243Z,9.57
2023-04-12T19:39:52.111Z,12.45
2023-04-12T19:42:18.967Z,8.30
2023-04-12T19:47:21.260Z,12.02
2023-04-12T19:49:49.457Z,11.02
2023-04-12T19:52:21.389Z,8.32
2023-04-12T19:54:48.486Z,6.30
2023-04-12T19:57:15.487Z,9.70
2023-04-12T19:59:47.981Z,9.18
2023-04-12T20:08:14.705Z,11.60
2023-04-12T20:10:42.579Z,9.05
2023-04-12T20:13:15.061Z,9.20
2023-04-12T20:15:45.149Z,6.32
2023-04-12T20:18:13.444Z,8.73
2023-04-12T20:20:45.053Z,12.65
2023-04-12T20:25:41.525Z,5.65
2023-04-12T20:28:09.055Z,10.13
2023-04-12T20:30:36.785Z,8.60
2023-04-12T20:33:06.818Z,8.80
2023-04-12T20:35:33.901Z,8.88
2023-04-12T20:38:00.940Z,7.63
2023-04-12T20:40:31.840Z,7.38
2023-04-12T20:42:58.866Z,47.42
2023-04-12T20:45:25.754Z,7.03
2023-04-12T20:47:52.661Z,8.32
2023-04-12T20:50:22.476Z,7.45
2023-04-12T20:52:51.903Z,8.60
2023-04-12T20:55:19.189Z,4.18
2023-04-12T20:57:46.111Z,4.65
2023-04-12T21:00:19.278Z,9.68
2023-04-12T21:02:46.797Z,7.18
2023-04-12T21:05:17.008Z,2.80
2023-04-12T21:07:46.659Z,6.53
2023-04-12T21:10:14.045Z,13.40
2023-04-12T21:12:45.012Z,3.75
2023-04-12T21:15:12.589Z,9.40
2023-04-12T21:17:40.704Z,2.92
2023-04-12T21:20:16.167Z,0.82
2023-04-12T21:22:44.368Z,3.65
2023-04-12T21:25:13.827Z,1.63
2023-04-12T21:27:45.653Z,4.32
2023-04-12T21:30:12.928Z,6.00
2023-04-12T21:32:42.711Z,6.43
2023-04-12T21:35:11.081Z,5.15
2023-04-12T21:37:39.201Z,3.67
2023-04-12T21:40:10.233Z,4.30
2023-04-12T21:42:37.578Z,4.53
2023-04-12T21:45:05.570Z,3.42
2023-04-12T21:47:32.642Z,5.70
2023-04-12T21:49:59.661Z,2.63
2023-04-12T21:52:26.778Z,7.53
2023-04-12T21:54:54.752Z,4.32
2023-04-12T21:57:21.755Z,4.90
2023-04-12T21:59:48.648Z,4.20
2023-04-12T22:02:15.831Z,4.72
2023-04-12T22:04:46.908Z,3.08
2023-04-12T22:07:16.863Z,1.20
2023-04-12T22:09:46.626Z,2.83
2023-04-12T22:12:13.558Z,3.90
2023-04-12T22:14:46.671Z,4.82
2023-04-12T22:17:18.315Z,1.80
2023-04-12T22:19:45.321Z,4.95
2023-04-12T22:22:14.308Z,1.35
2023-04-12T22:24:41.686Z,2.53
2023-04-12T22:27:09.307Z,2.03
2023-04-12T22:29:37.593Z,1.50
2023-04-12T22:32:04.766Z,6.30
2023-04-12T22:34:32.542Z,3.10
2023-04-12T22:36:59.391Z,4.07
2023-04-12T22:39:28.065Z,4.35
2023-04-12T22:41:57.350Z,9.05
2023-04-12T22:44:25.751Z,4.22
2023-04-12T22:46:54.848Z,2.35
2023-04-12T22:49:28.660Z,3.97
2023-04-12T22:51:56.511Z,8.38
2023-04-12T22:54:24.960Z,5.57
2023-04-12T22:56:52.492Z,4.43
2023-04-12T22:59:22.378Z,2.72
2023-04-12T23:01:50.513Z,4.55
2023-04-12T23:04:17.540Z,1.25
2023-04-12T23:06:45.027Z,1.88
2023-04-12T23:09:13.053Z,2.00
2023-04-12T23:11:41.319Z,5.15
2023-04-12T23:14:09.410Z,3.05
2023-04-12T23:16:42.377Z,4.05
2023-04-12T23:19:09.598Z,3.20
2023-04-12T23:21:39.050Z,2.25
2023-04-12T23:24:06.274Z,4.25
2023-04-12T23:26:34.609Z,1.05
2023-04-12T23:29:04.072Z,1.20
2023-04-12T23:31:32.551Z,7.35
2023-04-12T23:34:02.805Z,2.67
2023-04-12T23:36:30.346Z,6.35
2023-04-12T23:39:00.174Z,2.53
2023-04-12T23:41:32.123Z,3.50
2023-04-12T23:44:00.132Z,3.53
2023-04-12T23:46:29.140Z,6.93
2023-04-12T23:48:56.148Z,3.65
2023-04-12T23:51:23.402Z,3.70
2023-04-12T23:53:50.404Z,7.75
2023-04-12T23:56:17.317Z,4.70
2023-04-12T23:58:44.253Z,5.38
